Метеостанция


АнтоновUKKM 221000Z AUTO 27009G14MPS 9999 // NSC 16/02 Q1010
БориспольUKBB 221000Z 27007G12MPS CAVOK 17/02 Q1010 R88/CLRD// TEMPO 27010G15MPS
Гаврышовка (Винница)UKWW 221000Z 29007MPS 240V320 CAVOK 17/03 Q1012 NOSIG
ДнепропетровскUKDD 221000Z 22004MPS 190V260 CAVOK 19/10 Q1013 R26/090070 NOSIG
ЖуляныUKKK 221000Z 27011MPS CAVOK 16/03 Q1010 R26/70D TEMPO 27010G16MPS
Запорожье(Мокрая)UKDE 221000Z 20004MPS 160V240 9999 SCT024 17/11 Q1014 R20/090070 NOSIG
Ивано-ФранковскUKLI 221000Z 24008MPS 210V280 CAVOK 18/02 Q1013 R28/090070 TEMPO 25011G16MPS
Кривой РогUKDR 221000Z 25003MPS 180V290 CAVOK 17/09 Q1013 R18/09//70 NOSIG
ЛьвовUKLL 221000Z 28005MPS 250V320 CAVOK 13/04 Q1013 R31/CLRD// NOSIG
НиколаевUKON 221000Z 22003MPS 180V270 CAVOK 20/10 Q1014 R22/090075 NOSIG
ОдессаUKOO 221000Z 23003MPS 200V260 CAVOK 22/07 Q1014 R16/090095 NOSIG
РовноUKLR 221000Z 27013MPS CAVOK 13/M02 Q1011 R29/090070 NOSIG
УжгородUKLU 220830Z 18002MPS 120V230 9999 NSC 13/06 Q1015 R28/090070 NOSIG=
ХарьковUKHH 221000Z 27006MPS 240V300 CAVOK 17/05 Q1010 R25/0///81 NOSIG
ЧерновцыUKLN 221000Z 26002MPS 170V350 9999 NSC 19/03 Q1013 R33/09//70 NOSIG
Скачать:
Скачать этот файл (Metar_шпаргалка.jpg)Расшифровка METAR[ ]4799 Кб
Вся информация, которая имеется в использовании на сайте и доступная для скачивания, получена исключительно из открытых источников информации сети Интернет, всякое совпадение с данными, имеющими ограничения в доступе, случайное и не является преднамеренным.
^ Наверх